Time;durP1;ratioP1;P1;durP2;ratioP2;P2;SDS_P1;SDS_P2;PMS_P1;PMS_P2;Temp;Humidity;BMP_temperature;BMP_pressure;BME280_temperature;BME280_humidity;BME280_pressure;Samples;Min_cycle;Max_cycle;Signal;HPM_P1;HPM_P2
2022/05/07 00:01:21;;;;;;;10.77;7.80;;;;;;;17.19;63.34;100208.88;4291430;33;35655;-78
2022/05/07 00:04:07;;;;;;;10.73;7.20;;;;;;;17.13;63.28;100204.72;4299403;33;35671;-78
2022/05/07 00:06:54;;;;;;;12.15;7.37;;;;;;;17.02;64.07;100204.34;4300852;33;33730;-77
2022/05/07 00:09:40;;;;;;;9.85;6.82;;;;;;;17.41;62.86;100202.13;4301470;33;36132;-78
2022/05/07 00:12:26;;;;;;;11.43;7.25;;;;;;;17.35;62.77;100196.00;4301757;33;35935;-77
2022/05/07 00:15:13;;;;;;;12.32;7.80;;;;;;;17.15;63.91;100199.66;4301202;33;35453;-78
2022/05/07 00:18:03;;;;;;;11.95;7.45;;;;;;;17.35;62.76;100201.53;4298876;33;35111;-78
2022/05/07 00:20:50;;;;;;;12.85;7.62;;;;;;;17.23;63.31;100201.53;4300698;33;34492;-78
2022/05/07 00:23:37;;;;;;;12.95;7.55;;;;;;;17.19;62.66;100200.56;4299566;33;34905;-78
2022/05/07 00:26:25;;;;;;;12.85;7.60;;;;;;;17.28;62.54;100195.78;4299339;33;35403;-78
2022/05/07 00:29:11;;;;;;;9.65;6.95;;;;;;;17.46;62.27;100213.81;4301781;33;34306;-78
2022/05/07 00:31:57;;;;;;;11.07;7.57;;;;;;;17.45;62.39;100208.62;4301701;33;35596;-78
2022/05/07 00:34:43;;;;;;;14.73;7.55;;;;;;;17.57;62.08;100197.56;4298911;33;35417;-78
2022/05/07 00:37:31;;;;;;;11.43;7.28;;;;;;;17.42;62.29;100212.88;4300947;33;35438;-78
2022/05/07 00:40:16;;;;;;;10.27;7.07;;;;;;;17.59;62.00;100214.66;4298850;33;33741;-78
2022/05/07 00:43:03;;;;;;;11.38;7.25;;;;;;;17.69;61.60;100207.84;4300520;33;34763;-78
2022/05/07 00:45:50;;;;;;;10.60;6.55;;;;;;;17.73;61.59;100208.75;4302408;33;35977;-78
2022/05/07 00:48:37;;;;;;;9.55;7.20;;;;;;;17.75;61.44;100210.03;4290101;33;34825;-78
2022/05/07 00:51:33;;;;;;;11.00;7.00;;;;;;;17.75;61.60;100212.00;4298762;33;33595;-78
2022/05/07 00:54:23;;;;;;;11.93;7.22;;;;;;;17.76;61.39;100208.91;4298669;33;34387;-78
2022/05/07 00:57:09;;;;;;;10.02;6.93;;;;;;;17.52;63.12;100206.87;4300504;33;36525;-78
2022/05/07 00:59:57;;;;;;;12.37;6.60;;;;;;;17.77;60.54;100201.38;4300987;33;35687;-78
2022/05/07 01:02:44;;;;;;;12.75;6.65;;;;;;;17.78;60.57;100203.03;4300815;33;33779;-78
2022/05/07 01:05:31;;;;;;;10.98;6.22;;;;;;;17.59;60.56;100192.50;4299213;33;34762;-78
2022/05/07 01:08:20;;;;;;;10.48;6.62;;;;;;;17.70;60.23;100206.69;4300350;33;36003;-78
2022/05/07 01:11:06;;;;;;;10.15;6.95;;;;;;;17.48;60.54;100200.44;4289262;33;34253;-78
2022/05/07 01:13:53;;;;;;;9.00;6.37;;;;;;;17.65;60.26;100196.66;4289083;33;34117;-78
2022/05/07 01:16:41;;;;;;;8.82;6.32;;;;;;;17.58;60.22;100199.16;4288541;33;34235;-78
2022/05/07 01:19:28;;;;;;;11.38;6.75;;;;;;;17.50;60.44;100203.69;4299172;33;33686;-78
2022/05/07 01:22:15;;;;;;;9.68;6.72;;;;;;;17.63;60.30;100198.12;4296999;33;34743;-78
2022/05/07 01:25:03;;;;;;;10.35;6.43;;;;;;;17.51;60.29;100196.97;4301142;33;34921;-78
2022/05/07 01:27:49;;;;;;;9.30;6.15;;;;;;;17.33;61.14;100203.03;4288399;33;35601;-78
2022/05/07 01:30:35;;;;;;;11.35;6.80;;;;;;;17.40;60.77;100198.56;4299784;33;35067;-78
2022/05/07 01:33:22;;;;;;;9.52;6.45;;;;;;;17.46;60.41;100188.88;4300203;33;34697;-78
2022/05/07 01:36:11;;;;;;;9.05;6.57;;;;;;;17.38;60.75;100198.09;4298837;33;34201;-78
2022/05/07 01:38:58;;;;;;;10.50;7.07;;;;;;;17.45;60.34;100195.56;4299620;33;34201;-78
2022/05/07 01:41:44;;;;;;;9.98;6.93;;;;;;;17.36;60.67;100192.09;4300469;33;35074;-78
2022/05/07 01:44:30;;;;;;;9.98;6.85;;;;;;;17.21;61.18;100195.50;4299695;33;35497;-78
2022/05/07 01:50:22;;;;;;;8.98;5.72;;;;;;;17.34;60.47;100193.59;4300223;33;35673;-78
2022/05/07 01:53:11;;;;;;;10.40;6.40;;;;;;;17.01;60.86;100189.69;4297240;33;34493;-78
2022/05/07 01:56:00;;;;;;;;;;;;;;;17.01;60.45;100184.16;4300394;33;34380;-78
2022/05/07 01:58:48;;;;;;;8.02;5.60;;;;;;;17.07;60.09;100191.06;4298220;33;34945;-78
2022/05/07 02:01:35;;;;;;;9.13;6.03;;;;;;;17.06;60.21;100191.44;4299008;33;35681;-78
2022/05/07 02:04:22;;;;;;;9.35;5.90;;;;;;;16.92;60.52;100188.97;4300423;33;35108;-78
2022/05/07 02:07:09;;;;;;;7.85;5.68;;;;;;;16.71;61.49;100185.41;4297262;33;35130;-77
2022/05/07 02:09:56;;;;;;;7.12;5.37;;;;;;;16.98;60.23;100192.31;4298371;33;34906;-77
2022/05/07 02:12:44;;;;;;;8.77;5.37;;;;;;;16.66;60.86;100185.59;4298159;33;34543;-77
2022/05/07 02:15:31;;;;;;;7.12;5.30;;;;;;;16.48;61.40;100191.28;4300188;33;34623;-78
2022/05/07 02:18:17;;;;;;;8.90;5.28;;;;;;;16.82;60.93;100189.37;4299203;33;34378;-77
2022/05/07 02:21:04;;;;;;;7.85;5.25;;;;;;;16.88;60.48;100188.03;4300504;33;35083;-77
2022/05/07 02:23:50;;;;;;;6.78;5.03;;;;;;;16.63;60.78;100192.63;4299074;33;34410;-78
2022/05/07 02:26:36;;;;;;;8.15;5.47;;;;;;;16.83;60.70;100185.47;4298346;33;35271;-78
2022/05/07 02:29:23;;;;;;;7.72;5.32;;;;;;;16.75;60.90;100178.03;4297629;33;34106;-78
2022/05/07 02:32:13;;;;;;;9.18;5.70;;;;;;;16.77;60.76;100184.88;4299330;33;35074;-78
2022/05/07 02:35:00;;;;;;;10.35;5.65;;;;;;;16.73;60.91;100185.84;4289530;33;35415;-78
2022/05/07 02:37:46;;;;;;;6.03;4.68;;;;;;;16.89;60.25;100183.31;4297771;33;34617;-77
2022/05/07 02:42:33;;;;;;;8.07;4.90;;;;;;;16.73;61.05;100185.84;4298572;33;34636;-78
2022/05/07 02:43:40;;;;;;;10.10;5.30;;;;;;;16.63;61.39;100176.81;4299411;33;33851;-78
2022/05/07 02:46:27;;;;;;;7.07;4.95;;;;;;;16.82;60.54;100184.66;4300178;33;35684;-78
2022/05/07 02:49:14;;;;;;;10.00;5.70;;;;;;;16.80;60.73;100186.97;4299865;33;35476;-78
2022/05/07 02:52:01;;;;;;;8.27;5.15;;;;;;;16.69;60.76;100190.44;4302205;33;35436;-78
2022/05/07 02:54:47;;;;;;;10.07;5.75;;;;;;;16.68;60.66;100188.81;4300526;33;34155;-78
2022/05/07 02:57:33;;;;;;;8.48;5.28;;;;;;;16.71;61.05;100188.97;4298900;33;34206;-78
2022/05/07 03:00:20;;;;;;;8.80;5.45;;;;;;;16.26;63.20;100194.34;4301737;33;34955;-78
2022/05/07 03:03:06;;;;;;;11.68;5.45;;;;;;;16.66;61.77;100188.38;4298887;33;35122;-78
2022/05/07 03:05:54;;;;;;;9.02;4.97;;;;;;;16.68;61.14;100186.03;4299671;33;34111;-78
2022/05/07 03:08:40;;;;;;;6.68;4.65;;;;;;;16.64;61.24;100194.22;4287303;33;34958;-78
2022/05/07 03:11:26;;;;;;;9.85;5.45;;;;;;;16.66;61.35;100193.91;4301652;33;34677;-78
2022/05/07 03:14:13;;;;;;;10.68;5.30;;;;;;;16.72;60.96;100189.78;4300656;33;34477;-78
2022/05/07 03:16:59;;;;;;;9.55;5.07;;;;;;;16.72;61.17;100182.28;4299168;33;33941;-78
2022/05/07 03:19:45;;;;;;;8.18;5.15;;;;;;;16.82;60.78;100192.13;4297923;33;34755;-78
2022/05/07 03:22:32;;;;;;;8.57;5.53;;;;;;;16.73;60.95;100199.69;4300274;33;35979;-77
2022/05/07 03:25:18;;;;;;;7.18;5.37;;;;;;;16.85;60.32;100191.47;4301567;33;34695;-78
2022/05/07 03:28:04;;;;;;;8.77;4.70;;;;;;;16.82;60.70;100192.13;4301698;33;34233;-78
2022/05/07 03:30:51;;;;;;;9.23;5.20;;;;;;;16.75;60.73;100189.09;4298064;33;35400;-78
2022/05/07 03:33:37;;;;;;;8.15;4.78;;;;;;;16.70;60.41;100190.09;4298575;33;34990;-77
2022/05/07 03:36:24;;;;;;;7.25;5.20;;;;;;;16.61;60.72;100192.94;4298924;33;34274;-78
2022/05/07 03:39:13;;;;;;;7.68;4.87;;;;;;;16.47;61.14;100195.16;4300459;33;34091;-78
2022/05/07 03:41:59;;;;;;;10.00;5.47;;;;;;;16.12;62.36;100198.19;4301832;33;37268;-78
2022/05/07 03:44:48;;;;;;;8.25;5.32;;;;;;;16.29;62.08;100193.69;4301402;33;35037;-78
2022/05/07 03:47:35;;;;;;;7.93;5.12;;;;;;;16.43;61.54;100194.22;4304439;33;34573;-78
2022/05/07 03:50:23;;;;;;;11.25;5.53;;;;;;;16.39;61.65;100193.28;4299942;33;34915;-78
2022/05/07 03:56:15;;;;;;;9.52;5.85;;;;;;;16.27;62.00;100196.78;4301307;33;34927;-78
2022/05/07 03:59:02;;;;;;;7.65;5.30;;;;;;;16.21;62.47;100202.84;4301824;33;34293;-78
2022/05/07 04:01:48;;;;;;;8.38;5.40;;;;;;;16.24;62.44;100199.41;4300565;33;34260;-78
2022/05/07 04:04:41;;;;;;;8.70;5.43;;;;;;;16.26;62.43;100210.94;4301087;33;35517;-78
2022/05/07 04:07:28;;;;;;;9.98;5.93;;;;;;;16.24;62.28;100204.94;4299369;33;35049;-78
2022/05/07 04:10:16;;;;;;;8.20;5.70;;;;;;;16.05;62.99;100205.38;4300349;33;34867;-78
2022/05/07 04:13:02;;;;;;;9.55;5.40;;;;;;;16.25;62.80;100206.53;4301427;33;34567;-78
2022/05/07 04:15:49;;;;;;;9.68;5.07;;;;;;;16.24;62.82;100207.69;4301213;33;34413;-78
2022/05/07 04:18:35;;;;;;;7.50;5.60;;;;;;;16.42;62.06;100210.03;4298698;33;34379;-78
2022/05/07 04:21:22;;;;;;;8.90;5.40;;;;;;;16.67;61.76;100212.09;4301627;33;35669;-78
2022/05/07 04:24:09;;;;;;;9.05;5.70;;;;;;;16.63;61.52;100207.25;4299107;33;34704;-78
2022/05/07 04:26:56;;;;;;;8.85;5.87;;;;;;;16.61;61.77;100212.31;4301692;33;33502;-78
2022/05/07 04:29:43;;;;;;;9.35;5.55;;;;;;;16.48;61.78;100213.41;4301634;33;34954;-78
2022/05/07 04:32:31;;;;;;;9.95;6.05;;;;;;;16.38;62.62;100211.81;4301958;33;34358;-78
2022/05/07 04:35:17;;;;;;;7.12;5.20;;;;;;;16.54;62.10;100217.59;4300768;33;34179;-78
2022/05/07 04:38:04;;;;;;;7.45;5.32;;;;;;;16.41;62.89;100208.38;4300157;33;34655;-78
2022/05/07 04:40:50;;;;;;;8.93;5.47;;;;;;;16.61;61.69;100215.06;4300047;33;34599;-78
2022/05/07 04:43:37;;;;;;;8.02;5.35;;;;;;;16.89;61.06;100211.78;4297965;33;34617;-78
2022/05/07 04:46:24;;;;;;;8.20;5.40;;;;;;;16.72;61.71;100217.44;4300686;33;33707;-78
2022/05/07 04:49:11;;;;;;;12.07;5.70;;;;;;;16.52;61.69;100217.09;4300766;33;35333;-78
2022/05/07 04:51:57;;;;;;;7.95;5.20;;;;;;;16.36;62.31;100216.91;4300630;33;36046;-78
2022/05/07 04:54:44;;;;;;;9.77;5.57;;;;;;;16.61;61.57;100215.06;4298782;33;34644;-78
2022/05/07 04:57:36;;;;;;;8.52;5.35;;;;;;;16.59;61.67;100220.16;4297559;33;33568;-78
2022/05/07 05:00:24;;;;;;;10.77;5.55;;;;;;;16.56;62.00;100215.28;4301633;33;34251;-78
2022/05/07 05:03:12;;;;;;;10.10;6.10;;;;;;;16.62;61.87;100213.94;4300181;33;34772;-78
2022/05/07 05:05:58;;;;;;;8.05;5.40;;;;;;;16.61;61.54;100217.84;4302174;33;34567;-77
2022/05/07 05:08:45;;;;;;;9.00;5.53;;;;;;;16.35;62.48;100215.25;4300225;33;34362;-77
2022/05/07 05:11:34;;;;;;;9.43;6.43;;;;;;;16.43;63.03;100219.13;4298180;33;34950;-78
2022/05/07 05:17:26;;;;;;;9.45;5.85;;;;;;;16.77;61.98;100218.06;4300384;33;36076;-78
2022/05/07 05:20:14;;;;;;;9.73;6.15;;;;;;;16.74;62.44;100221.50;4297412;33;35108;-78
2022/05/07 05:23:01;;;;;;;9.40;5.97;;;;;;;16.76;62.12;100223.91;4299140;33;34664;-78
2022/05/07 05:25:47;;;;;;;9.43;5.68;;;;;;;16.72;62.06;100228.50;4298839;33;35892;-78
2022/05/07 05:28:37;;;;;;;8.95;5.70;;;;;;;16.88;61.58;100232.31;4300187;33;34752;-78
2022/05/07 05:31:24;;;;;;;8.93;5.78;;;;;;;17.10;61.89;100220.03;4298168;33;33919;-78
2022/05/07 05:34:12;;;;;;;11.88;7.30;;;;;;;17.04;61.22;100222.22;4297680;33;34590;-78
2022/05/07 05:36:59;;;;;;;10.43;5.40;;;;;;;16.92;61.94;100230.47;4300143;33;34476;-80
2022/05/07 05:39:47;;;;;;;8.23;5.72;;;;;;;16.74;61.71;100226.22;4295461;33;34281;-80
2022/05/07 05:42:33;;;;;;;9.57;6.43;;;;;;;16.82;62.01;100228.13;4299291;33;34624;-80
2022/05/07 05:45:20;;;;;;;9.43;5.32;;;;;;;16.73;62.34;100236.47;4289237;33;35599;-80
2022/05/07 05:48:07;;;;;;;12.68;6.75;;;;;;;17.02;61.24;100227.31;4298345;33;34953;-80
2022/05/07 05:50:53;;;;;;;10.68;6.05;;;;;;;17.12;61.31;100225.25;4300040;33;33615;-81
2022/05/07 05:53:40;;;;;;;9.63;5.80;;;;;;;16.94;61.62;100235.69;4299332;33;34116;-80
2022/05/07 05:56:28;;;;;;;8.40;5.55;;;;;;;16.91;62.24;100237.19;4298558;33;34702;-80
2022/05/07 05:59:14;;;;;;;9.70;5.70;;;;;;;16.89;61.94;100245.00;4300475;33;35029;-80
2022/05/07 06:02:01;;;;;;;10.10;6.40;;;;;;;17.15;61.23;100235.66;4299424;33;35642;-80
2022/05/07 06:04:48;;;;;;;9.85;5.40;;;;;;;17.14;60.11;100229.31;4288748;33;34502;-80
2022/05/07 06:07:35;;;;;;;10.70;5.82;;;;;;;17.25;60.03;100235.22;4298975;33;35533;-80
2022/05/07 06:10:21;;;;;;;8.82;5.60;;;;;;;17.34;59.63;100241.50;4299107;33;33724;-80
2022/05/07 06:13:07;;;;;;;10.55;5.93;;;;;;;17.12;60.72;100244.63;4299406;33;34909;-79
2022/05/07 06:15:58;;;;;;;7.70;5.80;;;;;;;17.12;61.63;100241.88;4299134;33;34273;-80
2022/05/07 06:18:44;;;;;;;8.85;5.60;;;;;;;17.52;59.99;100242.91;4298941;33;34439;-80
2022/05/07 06:21:31;;;;;;;7.60;5.43;;;;;;;17.39;61.47;100235.72;4301338;33;35680;-81
2022/05/07 06:27:28;;;;;;;7.78;5.40;;;;;;;17.37;59.68;100238.03;4301809;33;34322;-80
2022/05/07 06:30:15;;;;;;;7.80;5.50;;;;;;;17.70;59.79;100246.31;4299551;33;35617;-81
2022/05/07 06:33:02;;;;;;;7.78;5.75;;;;;;;17.77;59.21;100245.72;4300645;33;35044;-80
2022/05/07 06:35:49;;;;;;;10.68;5.87;;;;;;;17.53;59.55;100241.78;4289662;33;35303;-81
2022/05/07 06:38:36;;;;;;;9.38;5.62;;;;;;;17.66;59.42;100244.56;4301900;33;34088;-81
2022/05/07 06:41:24;;;;;;;11.70;6.15;;;;;;;17.87;58.61;100242.56;4290748;33;34576;-80
2022/05/07 06:44:10;;;;;;;9.13;5.68;;;;;;;17.97;58.57;100244.84;4302816;33;34655;-80
2022/05/07 06:46:58;;;;;;;12.10;5.45;;;;;;;17.86;58.75;100242.88;4298690;33;34682;-80
2022/05/07 06:49:45;;;;;;;9.38;5.95;;;;;;;17.60;59.34;100237.63;4297301;33;34269;-80
2022/05/07 06:52:32;;;;;;;8.50;5.72;;;;;;;17.48;60.32;100244.75;4287455;33;34113;-81
2022/05/07 06:55:19;;;;;;;9.07;6.05;;;;;;;18.01;59.43;100244.16;4302517;33;35898;-79
2022/05/07 06:58:05;;;;;;;8.05;5.80;;;;;;;17.72;59.82;100248.72;4299980;33;34865;-80
2022/05/07 07:01:09;;;;;;;8.25;5.87;;;;;;;18.09;58.23;100243.22;4299679;33;34098;-80
2022/05/07 07:03:57;;;;;;;8.98;5.55;;;;;;;18.18;58.37;100239.16;4302479;33;34285;-80
2022/05/07 07:06:43;;;;;;;8.13;5.55;;;;;;;18.27;58.04;100241.84;4298453;33;35316;-79
2022/05/07 07:09:30;;;;;;;10.35;6.10;;;;;;;18.33;58.05;100245.19;4296413;33;34599;-80
2022/05/07 07:12:16;;;;;;;8.95;5.85;;;;;;;18.32;57.98;100236.03;4300536;33;33828;-79
2022/05/07 07:15:14;;;;;;;8.48;5.60;;;;;;;18.40;58.55;100235.12;4298625;33;34191;-79
2022/05/07 07:18:02;;;;;;;12.55;5.78;;;;;;;18.87;57.49;100248.47;4302901;33;34715;-80
2022/05/07 07:20:50;;;;;;;9.50;5.80;;;;;;;18.70;56.99;100251.50;4301519;33;35940;-80
2022/05/07 07:23:37;;;;;;;8.43;6.25;;;;;;;18.74;56.91;100244.09;4298826;33;34095;-81
2022/05/07 07:26:23;;;;;;;8.57;5.28;;;;;;;18.60;57.41;100249.19;4300820;33;34764;-80
2022/05/07 07:29:09;;;;;;;12.15;5.90;;;;;;;18.61;57.83;100248.84;4299405;33;35100;-80
2022/05/07 07:31:56;;;;;;;8.60;6.20;;;;;;;19.25;56.23;100255.47;4291278;33;34510;-80
2022/05/07 07:34:43;;;;;;;8.52;5.53;;;;;;;18.95;56.54;100256.97;4291488;33;33859;-80
2022/05/07 07:37:32;;;;;;;11.38;6.55;;;;;;;19.17;56.08;100262.00;4299859;33;34368;-79
2022/05/07 07:40:19;;;;;;;8.70;5.95;;;;;;;19.35;54.98;100250.56;4301206;33;34616;-79
2022/05/07 07:43:05;;;;;;;8.60;5.65;;;;;;;19.37;54.91;100264.91;4303060;33;34218;-80
2022/05/07 07:48:57;;;;;;;8.98;5.43;;;;;;;18.90;56.37;100257.22;4300632;33;35322;-80
2022/05/07 07:51:43;;;;;;;8.20;5.43;;;;;;;19.35;54.67;100256.12;4302443;33;34996;-80
2022/05/07 07:54:30;;;;;;;9.38;5.53;;;;;;;19.25;54.13;100257.44;4301800;33;34519;-80
2022/05/07 07:57:16;;;;;;;9.00;5.47;;;;;;;18.66;57.06;100251.38;4301546;33;33999;-80
2022/05/07 08:00:03;;;;;;;8.45;5.30;;;;;;;19.21;54.71;100254.59;4299884;33;34699;-80
2022/05/07 08:03:03;;;;;;;10.55;5.55;;;;;;;19.27;54.71;100264.28;4301275;33;35077;-79
2022/05/07 08:05:51;;;;;;;10.35;5.65;;;;;;;19.18;55.03;100262.78;4299660;33;35180;-80
2022/05/07 08:11:50;;;;;;;9.43;5.62;;;;;;;19.41;55.25;100261.09;4300973;33;35722;-80
2022/05/07 08:14:36;;;;;;;7.35;5.65;;;;;;;19.25;54.64;100263.81;4287371;33;34854;-80
2022/05/07 08:17:28;;;;;;;7.53;5.72;;;;;;;19.24;56.41;100262.22;4298906;33;34743;-80
2022/05/07 08:20:14;;;;;;;8.52;4.80;;;;;;;19.72;53.44;100268.69;4301192;33;34198;-80
2022/05/07 08:23:01;;;;;;;8.45;5.78;;;;;;;20.19;53.87;100255.94;4300996;33;35583;-80
2022/05/07 08:25:47;;;;;;;9.38;5.25;;;;;;;19.96;53.86;100267.69;4299546;33;34923;-80
2022/05/07 08:28:35;;;;;;;9.07;6.05;;;;;;;20.21;53.09;100262.75;4299812;33;34151;-80
2022/05/07 08:31:24;;;;;;;9.13;6.03;;;;;;;20.29;51.38;100262.91;4298226;33;33735;-80
2022/05/07 08:34:11;;;;;;;8.45;5.80;;;;;;;20.44;52.27;100262.09;4288509;33;34666;-81
2022/05/07 08:36:57;;;;;;;10.13;5.62;;;;;;;20.75;51.39;100263.19;4299196;33;35730;-81
2022/05/07 08:39:43;;;;;;;9.20;5.80;;;;;;;20.93;51.31;100258.00;4301250;33;34761;-80
2022/05/07 08:42:31;;;;;;;8.52;6.57;;;;;;;20.66;51.42;100261.44;4300792;33;34252;-80
2022/05/07 08:45:17;;;;;;;10.48;5.95;;;;;;;20.99;50.91;100265.69;4299609;33;35620;-81
2022/05/07 08:48:04;;;;;;;10.32;5.43;;;;;;;20.60;51.31;100264.84;4298550;33;34464;-81
2022/05/07 08:50:51;;;;;;;8.88;5.47;;;;;;;21.21;50.28;100261.37;4301209;33;35458;-80
2022/05/07 08:53:38;;;;;;;8.32;5.37;;;;;;;21.15;51.42;100265.62;4298951;33;34374;-80
2022/05/07 08:56:26;;;;;;;9.05;6.03;;;;;;;21.36;49.15;100273.59;4301556;33;34277;-80
2022/05/07 08:59:13;;;;;;;11.00;6.12;;;;;;;21.82;48.40;100264.50;4300354;33;36032;-80
2022/05/07 09:01:59;;;;;;;10.20;5.68;;;;;;;21.84;48.46;100270.53;4296931;33;35273;-81
2022/05/07 09:04:58;;;;;;;10.68;6.03;;;;;;;22.07;48.45;100264.94;4299939;33;35305;-80
2022/05/07 09:07:57;;;;;;;9.63;5.50;;;;;;;22.43;46.82;100264.34;4299093;33;34648;-79
2022/05/07 09:10:43;;;;;;;8.43;4.90;;;;;;;21.14;47.18;100261.22;4297494;33;35990;-79
2022/05/07 09:13:33;;;;;;;9.35;5.53;;;;;;;22.18;44.28;100257.59;4298706;33;34658;-78
2022/05/07 09:16:19;;;;;;;9.15;5.53;;;;;;;22.37;44.87;100257.50;4301178;33;33766;-78
2022/05/07 09:19:25;;;;;;;7.68;5.87;;;;;;;22.55;45.99;100262.53;4299538;33;35349;-78
2022/05/07 09:22:11;;;;;;;9.38;4.40;;;;;;;22.63;45.13;100262.25;4288866;33;34514;-78
2022/05/07 09:24:58;;;;;;;10.07;5.18;;;;;;;22.48;45.47;100259.62;4296619;33;34699;-79
2022/05/07 09:27:46;;;;;;;9.65;5.47;;;;;;;22.93;43.88;100263.44;4298066;33;34781;-79
2022/05/07 09:30:34;;;;;;;8.55;4.90;;;;;;;23.01;41.46;100249.19;4300844;33;34471;-79
2022/05/07 09:33:36;;;;;;;7.62;5.25;;;;;;;23.09;42.26;100250.91;4301152;33;35823;-79
2022/05/07 09:36:23;;;;;;;10.02;4.60;;;;;;;23.04;42.68;100247.63;4299106;33;34762;-79
2022/05/07 09:39:14;;;;;;;10.57;5.20;;;;;;;22.98;42.35;100246.38;4288052;33;33920;-80
2022/05/07 09:42:01;;;;;;;12.50;6.12;;;;;;;22.60;42.60;100251.03;4300410;33;36313;-80
2022/05/07 09:44:48;;;;;;;8.88;4.57;;;;;;;22.65;42.17;100245.94;4298727;33;34960;-81
2022/05/07 09:47:36;;;;;;;8.35;4.78;;;;;;;22.23;42.40;100243.31;4289750;33;34252;-80
2022/05/07 09:59:36;;;;;;;7.62;4.60;;;;;;;22.98;42.25;100221.22;4301466;33;34475;-80
2022/05/07 10:02:40;;;;;;;8.93;4.37;;;;;;;23.99;40.97;100215.44;4297000;33;34316;-80
2022/05/07 10:05:42;;;;;;;7.20;4.62;;;;;;;23.91;41.67;100222.97;4300255;33;34407;-81
2022/05/07 10:08:48;;;;;;;7.72;4.55;;;;;;;23.23;40.94;100219.50;4302862;33;34796;-81
2022/05/07 10:11:35;;;;;;;7.57;4.68;;;;;;;23.90;39.17;100214.97;4289578;33;34252;-80
2022/05/07 10:14:31;;;;;;;8.02;4.45;;;;;;;24.14;39.29;100208.75;4299372;33;35008;-79
2022/05/07 10:17:21;;;;;;;7.43;4.60;;;;;;;24.31;37.70;100214.88;4290427;33;34650;-80
2022/05/07 10:20:13;;;;;;;6.95;4.18;;;;;;;24.56;38.27;100206.63;4299302;33;34300;-81
2022/05/07 10:23:01;;;;;;;7.20;4.25;;;;;;;24.97;36.79;100198.00;4292880;33;34386;-80
2022/05/07 10:25:55;;;;;;;8.43;4.28;;;;;;;25.13;36.44;100201.25;4299820;33;33826;-80
2022/05/07 10:28:42;;;;;;;7.03;4.97;;;;;;;25.45;36.92;100195.75;4299156;33;34228;-80
2022/05/07 10:31:28;;;;;;;10.13;5.00;;;;;;;25.13;34.44;100195.63;4303848;33;34976;-80
2022/05/07 10:34:25;;;;;;;16.05;5.07;;;;;;;25.20;36.10;100195.69;4301617;33;34272;-81
2022/05/07 10:37:11;;;;;;;10.82;5.12;;;;;;;25.43;36.65;100191.72;4300346;33;33735;-80
2022/05/07 10:40:10;;;;;;;7.10;4.68;;;;;;;25.57;34.56;100203.75;4299289;33;35098;-81
2022/05/07 10:42:56;;;;;;;7.18;5.20;;;;;;;25.67;32.79;100192.94;4299209;33;35922;-81
2022/05/07 10:45:42;;;;;;;7.62;4.90;;;;;;;24.94;34.94;100194.00;4298766;33;34879;-81
2022/05/07 10:48:28;;;;;;;6.90;4.75;;;;;;;25.00;36.40;100186.78;4300678;33;34419;-81
2022/05/07 10:51:29;;;;;;;10.25;5.10;;;;;;;25.88;34.77;100184.56;4300093;33;34460;-81
2022/05/07 10:54:23;;;;;;;7.95;5.00;;;;;;;25.60;34.09;100192.94;4298460;33;35630;-81
2022/05/07 10:57:10;;;;;;;6.22;4.57;;;;;;;25.31;34.59;100190.91;4301518;33;34728;-81
2022/05/07 10:59:56;;;;;;;8.55;5.15;;;;;;;24.77;37.14;100184.31;4302601;33;34120;-81
2022/05/07 11:02:45;;;;;;;10.68;4.40;;;;;;;24.95;35.82;100195.59;4298398;33;34602;-82
2022/05/07 11:05:35;;;;;;;7.55;4.55;;;;;;;24.81;35.27;100187.91;4289922;33;34650;-81
2022/05/07 11:08:22;;;;;;;;;;;;;;;24.87;35.69;100179.94;4291627;33;35030;-83
2022/05/07 11:11:12;;;;;;;8.40;4.93;;;;;;;25.01;35.65;100176.37;4302001;33;34149;-82
2022/05/07 11:13:58;;;;;;;7.85;6.07;;;;;;;25.12;37.15;100182.81;4303425;33;34895;-82
2022/05/07 11:16:44;;;;;;;7.82;4.87;;;;;;;24.70;37.63;100175.87;4299453;33;34956;-82
2022/05/07 11:19:35;;;;;;;7.80;4.22;;;;;;;25.06;36.42;100179.59;4296600;33;34236;-81
2022/05/07 11:22:29;;;;;;;8.52;4.85;;;;;;;24.81;34.97;100175.91;4297767;33;34780;-80
2022/05/07 11:25:16;;;;;;;9.48;4.50;;;;;;;24.83;33.28;100171.53;4297159;33;34221;-81
2022/05/07 11:28:02;;;;;;;9.10;4.50;;;;;;;25.29;33.46;100158.84;4300083;33;35976;-82
2022/05/07 11:30:51;;;;;;;10.05;5.03;;;;;;;25.04;34.53;100164.38;4298598;33;34639;-81
2022/05/07 11:33:38;;;;;;;6.75;4.62;;;;;;;25.01;35.87;100168.78;4301077;33;34231;-81
2022/05/07 11:36:25;;;;;;;7.28;5.20;;;;;;;24.67;35.32;100160.66;4296579;33;34588;-81
2022/05/07 11:39:15;;;;;;;8.05;5.20;;;;;;;25.15;36.08;100167.25;4297457;33;36330;-82
2022/05/07 11:42:02;;;;;;;6.80;4.65;;;;;;;25.24;34.88;100165.66;4297722;33;34813;-81
2022/05/07 11:47:57;;;;;;;6.03;4.18;;;;;;;25.91;34.47;100152.87;4300648;33;36048;-80
2022/05/07 11:50:52;;;;;;;7.18;5.18;;;;;;;26.40;33.37;100155.97;4301926;33;34614;-81
2022/05/07 11:53:39;;;;;;;5.97;5.25;;;;;;;26.98;32.02;100150.91;4298579;33;33672;-81
2022/05/07 11:56:29;;;;;;;8.53;5.83;;;;;;;26.66;33.03;100147.06;4300044;33;33647;-81
2022/05/07 11:59:15;;;;;;;7.55;5.72;;;;;;;26.23;34.36;100144.38;4299735;33;34788;-81
2022/05/07 12:02:07;;;;;;;9.88;5.68;;;;;;;26.50;33.66;100145.91;4290214;33;34899;-81
2022/05/07 12:04:57;;;;;;;7.37;5.00;;;;;;;25.93;34.15;100144.84;4299743;33;36043;-80
2022/05/07 12:07:47;;;;;;;8.32;4.80;;;;;;;25.81;33.16;100139.63;4298930;33;34213;-82
2022/05/07 12:10:33;;;;;;;6.47;4.37;;;;;;;25.65;34.42;100142.06;4287455;33;35694;-82
2022/05/07 12:13:21;;;;;;;5.20;3.90;;;;;;;25.96;32.51;100146.84;4296813;33;36009;-80
2022/05/07 12:19:13;;;;;;;7.47;3.80;;;;;;;27.18;31.06;100139.97;4296893;33;117005;-82
2022/05/07 12:31:15;;;;;;;6.80;4.68;;;;;;;27.20;31.16;100129.91;4302046;33;34155;-81
2022/05/07 12:34:02;;;;;;;5.68;4.47;;;;;;;27.43;30.90;100132.16;4297600;33;34631;-81
2022/05/07 12:36:48;;;;;;;6.18;4.28;;;;;;;27.58;29.94;100110.34;4286110;33;35000;-81
2022/05/07 12:39:36;;;;;;;9.35;4.43;;;;;;;28.22;29.79;100120.16;4288184;33;34465;-82
2022/05/07 12:42:25;;;;;;;8.65;4.12;;;;;;;28.15;28.88;100115.44;4299578;33;34058;-80
2022/05/07 12:45:11;;;;;;;6.65;4.60;;;;;;;28.08;29.82;100118.31;4299458;33;34666;-82
2022/05/07 12:47:58;;;;;;;7.95;5.07;;;;;;;28.05;27.50;100113.50;4299935;33;35876;-81
2022/05/07 12:50:46;;;;;;;10.25;5.43;;;;;;;28.64;27.17;100110.41;4298767;33;34363;-81
2022/05/07 12:53:32;;;;;;;5.80;4.22;;;;;;;28.33;29.05;100103.94;4297825;33;34278;-81
2022/05/07 12:56:19;;;;;;;7.25;4.18;;;;;;;28.14;29.15;100113.81;4298780;33;34220;-81
2022/05/07 12:59:05;;;;;;;5.85;3.80;;;;;;;28.09;29.64;100107.84;4298389;33;35986;-81
2022/05/07 13:01:51;;;;;;;5.55;4.05;;;;;;;28.27;28.54;100091.53;4299506;33;34718;-81
2022/05/07 13:04:38;;;;;;;9.88;4.00;;;;;;;28.08;28.15;100101.41;4298743;33;35116;-81
2022/05/07 13:07:24;;;;;;;7.82;3.85;;;;;;;28.18;26.71;100097.69;4300232;33;33733;-81
2022/05/07 13:10:11;;;;;;;8.02;3.95;;;;;;;27.87;27.86;100090.38;4298385;33;34918;-81
2022/05/07 13:12:59;;;;;;;7.70;4.00;;;;;;;28.06;27.91;100091.78;4298699;33;34645;-81
2022/05/07 13:15:45;;;;;;;5.95;4.15;;;;;;;27.94;27.90;100090.31;4298600;33;35073;-81
2022/05/07 13:18:32;;;;;;;9.65;4.62;;;;;;;28.04;27.25;100086.59;4300172;33;34661;-79
2022/05/07 13:21:18;;;;;;;6.18;3.80;;;;;;;26.73;29.45;100084.41;4298879;33;36034;-80
2022/05/07 13:24:05;;;;;;;4.90;3.85;;;;;;;27.17;28.65;100076.50;4299565;33;34685;-80
2022/05/07 13:26:51;;;;;;;6.35;3.83;;;;;;;26.75;28.87;100075.56;4296641;33;34722;-80
2022/05/07 13:29:37;;;;;;;7.28;3.85;;;;;;;26.96;29.92;100069.00;4299528;33;35097;-80
2022/05/07 13:32:24;;;;;;;8.20;4.07;;;;;;;27.04;30.84;100076.97;4299819;33;34522;-80
2022/05/07 13:35:11;;;;;;;6.32;3.80;;;;;;;27.29;30.16;100076.00;4300610;33;35448;-80
2022/05/07 13:37:57;;;;;;;6.03;3.55;;;;;;;27.47;28.18;100068.22;4298289;33;34391;-81
2022/05/07 13:40:44;;;;;;;8.57;4.15;;;;;;;27.66;27.33;100064.00;4298961;33;34642;-81
2022/05/07 13:43:30;;;;;;;5.93;3.65;;;;;;;27.75;26.38;100071.94;4287711;33;34984;-81